createdAt,value
2017-09-05T00:01:25.030Z,69.70
2017-09-05T00:03:53.169Z,70.30
2017-09-05T00:06:21.326Z,70.50
2017-09-05T00:08:49.491Z,71.40
2017-09-05T00:11:17.640Z,71.60
2017-09-05T00:13:47.011Z,72.40
2017-09-05T00:16:15.146Z,72.40
2017-09-05T00:18:43.296Z,73.30
2017-09-05T00:21:11.569Z,73.20
2017-09-05T00:23:39.716Z,73.20
2017-09-05T00:26:07.887Z,74.90
2017-09-05T00:28:36.069Z,74.60
2017-09-05T00:31:04.209Z,75.80
2017-09-05T00:33:32.387Z,76.90
2017-09-05T00:36:00.520Z,77.20
2017-09-05T00:38:28.800Z,78.10
2017-09-05T00:40:56.946Z,78.90
2017-09-05T00:43:25.133Z,80.10
2017-09-05T00:45:53.266Z,80.70
2017-09-05T00:48:21.393Z,81.80
2017-09-05T00:50:49.552Z,81.30
2017-09-05T00:53:17.690Z,82.10
2017-09-05T00:55:45.961Z,81.30
2017-09-05T00:58:14.097Z,82.00
2017-09-05T01:00:42.265Z,81.70
2017-09-05T01:03:10.397Z,82.50
2017-09-05T01:05:38.605Z,82.60
2017-09-05T01:08:07.096Z,82.50
2017-09-05T01:10:37.551Z,82.80
2017-09-05T01:13:09.435Z,82.90
2017-09-05T01:15:39.947Z,82.60
2017-09-05T01:18:10.628Z,83.00
2017-09-05T01:20:41.610Z,82.30
2017-09-05T01:23:12.833Z,81.50
2017-09-05T01:25:44.274Z,81.60
2017-09-05T01:28:16.012Z,81.30
2017-09-05T01:30:46.374Z,81.50
2017-09-05T01:33:16.697Z,81.50
2017-09-05T01:35:46.601Z,81.40
2017-09-05T01:38:18.493Z,81.70
2017-09-05T01:40:49.710Z,81.50
2017-09-05T01:43:20.885Z,80.80
2017-09-05T01:45:51.599Z,80.80
2017-09-05T01:48:22.133Z,81.10
2017-09-05T01:50:53.381Z,80.90
2017-09-05T01:53:25.528Z,80.90
2017-09-05T01:55:55.596Z,80.80
2017-09-05T01:58:26.363Z,80.40
2017-09-05T02:00:57.193Z,80.30
2017-09-05T02:03:26.318Z,80.30
2017-09-05T02:05:55.652Z,80.40
2017-09-05T02:08:25.815Z,80.20
2017-09-05T02:10:55.997Z,80.00
2017-09-05T02:13:27.247Z,79.90
2017-09-05T02:15:58.636Z,79.70
2017-09-05T02:18:30.856Z,79.60
2017-09-05T02:21:01.834Z,79.60
2017-09-05T02:23:33.119Z,79.90
2017-09-05T02:26:04.309Z,80.20
2017-09-05T02:28:36.240Z,80.60
2017-09-05T02:31:07.365Z,81.40
2017-09-05T02:33:39.817Z,81.40
2017-09-05T02:36:10.648Z,81.70
2017-09-05T02:38:43.074Z,81.50
2017-09-05T02:41:16.120Z,81.20
2017-09-05T02:43:47.884Z,82.10
2017-09-05T02:46:19.533Z,82.30
2017-09-05T02:48:50.398Z,82.50
2017-09-05T02:51:21.212Z,82.50
2017-09-05T02:53:51.169Z,82.20
2017-09-05T02:56:21.955Z,83.70
2017-09-05T02:58:53.721Z,82.90
2017-09-05T03:01:25.191Z,82.70
2017-09-05T03:03:55.396Z,82.20
2017-09-05T03:06:25.232Z,82.20
2017-09-05T03:08:55.064Z,82.50
2017-09-05T03:11:25.452Z,82.50
2017-09-05T03:13:56.382Z,83.00
2017-09-05T03:16:27.449Z,82.70
2017-09-05T03:18:57.989Z,82.70
2017-09-05T03:21:27.378Z,82.80
2017-09-05T03:23:58.574Z,83.00
2017-09-05T03:26:29.750Z,82.80
2017-09-05T03:28:59.953Z,83.10
2017-09-05T03:31:31.309Z,83.60
2017-09-05T03:34:02.333Z,83.40
2017-09-05T03:36:33.578Z,83.40
2017-09-05T03:39:07.405Z,83.30
2017-09-05T03:41:41.793Z,83.30
2017-09-05T03:44:13.103Z,83.20
2017-09-05T03:46:45.045Z,83.20
2017-09-05T03:49:17.819Z,83.20
2017-09-05T03:51:48.587Z,83.30
2017-09-05T03:54:19.576Z,83.20
2017-09-05T03:56:50.652Z,83.10
2017-09-05T03:59:22.315Z,82.70
2017-09-05T04:01:53.480Z,82.60
2017-09-05T04:04:23.875Z,82.70
2017-09-05T04:06:54.344Z,82.80
2017-09-05T04:09:25.336Z,82.90
2017-09-05T04:11:55.010Z,83.20
2017-09-05T04:14:25.054Z,83.90
2017-09-05T04:16:54.891Z,83.60
2017-09-05T04:19:25.659Z,83.80
2017-09-05T04:21:57.352Z,84.40
2017-09-05T04:24:27.767Z,84.10
2017-09-05T04:26:59.857Z,84.70
2017-09-05T04:29:30.133Z,85.40
2017-09-05T04:32:01.418Z,85.70
2017-09-05T04:34:35.066Z,85.10
2017-09-05T04:37:07.637Z,85.60
2017-09-05T04:39:37.601Z,84.90
2017-09-05T04:42:09.246Z,85.10
2017-09-05T04:44:41.396Z,85.60
2017-09-05T04:47:13.675Z,85.20
2017-09-05T04:49:44.533Z,85.30
2017-09-05T04:52:16.713Z,85.80
2017-09-05T04:54:48.632Z,85.90
2017-09-05T04:57:20.300Z,85.60
2017-09-05T04:59:51.113Z,85.60
2017-09-05T05:02:24.117Z,85.40
2017-09-05T05:04:56.906Z,85.80
2017-09-05T05:07:28.096Z,85.50
2017-09-05T05:09:58.508Z,85.70
2017-09-05T05:12:30.472Z,85.90
2017-09-05T05:15:01.712Z,85.70
2017-09-05T05:17:32.327Z,85.70
2017-09-05T05:20:03.196Z,85.30
2017-09-05T05:22:35.035Z,85.00
2017-09-05T05:25:05.724Z,84.90
2017-09-05T05:27:35.012Z,84.70
2017-09-05T05:30:05.791Z,84.70
2017-09-05T05:32:36.262Z,84.30
2017-09-05T05:35:09.285Z,84.20
2017-09-05T05:37:40.552Z,84.20
2017-09-05T05:40:11.365Z,84.00
2017-09-05T05:42:42.059Z,83.90
2017-09-05T05:45:14.012Z,84.00
2017-09-05T05:47:44.298Z,83.80
2017-09-05T05:50:15.959Z,83.60
2017-09-05T05:52:47.082Z,83.70
2017-09-05T05:55:17.959Z,83.30
2017-09-05T05:57:51.437Z,83.70
2017-09-05T06:00:22.742Z,83.70
2017-09-05T06:02:54.448Z,83.50
2017-09-05T06:05:26.327Z,83.30
2017-09-05T06:07:56.813Z,83.10
2017-09-05T06:10:26.857Z,83.20
2017-09-05T06:12:58.118Z,83.00
2017-09-05T06:15:31.488Z,83.60
2017-09-05T06:18:03.495Z,83.60
2017-09-05T06:20:35.782Z,84.00
2017-09-05T06:23:07.969Z,83.60
2017-09-05T06:25:40.510Z,83.70
2017-09-05T06:28:10.910Z,83.20
2017-09-05T06:30:42.151Z,83.50
2017-09-05T06:33:14.565Z,83.30
2017-09-05T06:35:47.534Z,83.40
2017-09-05T06:38:18.131Z,83.90
2017-09-05T06:40:50.321Z,84.30
2017-09-05T06:43:22.446Z,84.30
2017-09-05T06:45:53.941Z,83.80
2017-09-05T06:48:24.780Z,83.40
2017-09-05T06:50:57.021Z,83.80
2017-09-05T06:53:29.445Z,84.20
2017-09-05T06:56:01.428Z,83.80
2017-09-05T06:58:33.024Z,83.90
2017-09-05T07:01:04.216Z,83.80
2017-09-05T07:03:39.959Z,83.50
2017-09-05T07:06:12.621Z,83.80
2017-09-05T07:08:44.771Z,83.80
2017-09-05T07:11:15.493Z,83.80
2017-09-05T07:13:45.498Z,83.50
2017-09-05T07:16:17.949Z,84.90
2017-09-05T07:18:48.821Z,84.40
2017-09-05T07:21:20.284Z,83.60
2017-09-05T07:23:51.785Z,83.00
2017-09-05T07:26:22.793Z,82.80
2017-09-05T07:31:31.145Z,83.20
2017-09-05T07:36:42.714Z,82.40
2017-09-05T07:39:14.503Z,82.70
2017-09-05T07:41:48.436Z,83.10
2017-09-05T07:44:20.860Z,83.00
2017-09-05T07:46:50.306Z,83.20
2017-09-05T07:49:24.765Z,83.00
2017-09-05T07:51:57.012Z,82.70
2017-09-05T07:54:27.085Z,83.40
2017-09-05T07:56:56.308Z,81.90
2017-09-05T07:59:26.209Z,83.20
2017-09-05T08:01:57.469Z,84.10
2017-09-05T08:04:33.619Z,82.80
2017-09-05T08:07:06.281Z,82.10
2017-09-05T08:09:39.040Z,82.40
2017-09-05T08:12:11.648Z,82.10
2017-09-05T08:14:42.777Z,83.20
2017-09-05T08:17:13.588Z,82.40
2017-09-05T08:19:44.087Z,81.90
2017-09-05T08:22:16.177Z,82.30
2017-09-05T08:24:46.662Z,81.60
2017-09-05T08:27:18.556Z,81.00
2017-09-05T08:29:50.343Z,81.20
2017-09-05T08:32:20.788Z,80.50
2017-09-05T08:34:49.958Z,80.50
2017-09-05T08:37:20.433Z,80.30
2017-09-05T08:39:52.646Z,79.40
2017-09-05T08:42:22.026Z,78.80
2017-09-05T08:44:53.974Z,79.00
2017-09-05T08:47:25.032Z,79.30
2017-09-05T08:49:55.138Z,78.90
2017-09-05T08:52:28.008Z,79.90
2017-09-05T08:55:00.367Z,77.00
2017-09-05T08:57:30.725Z,77.00
2017-09-05T09:00:02.191Z,76.90
2017-09-05T09:02:40.837Z,77.00
2017-09-05T09:05:12.595Z,76.80
2017-09-05T09:07:44.113Z,77.20
2017-09-05T09:10:15.529Z,76.00
2017-09-05T09:12:45.764Z,78.30
2017-09-05T09:15:16.290Z,76.70
2017-09-05T09:17:47.167Z,75.20
2017-09-05T09:20:17.331Z,75.50
2017-09-05T09:22:46.700Z,76.40
2017-09-05T09:25:17.585Z,74.30
2017-09-05T09:27:48.843Z,73.00
2017-09-05T09:30:19.958Z,71.40
2017-09-05T09:32:50.707Z,71.40
2017-09-05T09:35:21.249Z,72.20
2017-09-05T09:37:51.428Z,72.40
2017-09-05T09:40:21.982Z,72.10
2017-09-05T09:42:52.258Z,70.90
2017-09-05T09:45:22.951Z,70.80
2017-09-05T09:47:53.051Z,70.20
2017-09-05T09:50:23.772Z,70.00
2017-09-05T09:52:53.912Z,69.40
2017-09-05T09:55:23.721Z,70.10
2017-09-05T09:57:54.373Z,70.30
2017-09-05T10:00:24.260Z,70.20
2017-09-05T10:02:55.113Z,70.10
2017-09-05T10:05:24.724Z,69.80
2017-09-05T10:07:55.361Z,68.90
2017-09-05T10:10:24.781Z,70.00
2017-09-05T10:12:54.981Z,69.60
2017-09-05T10:15:25.922Z,69.50
2017-09-05T10:17:55.480Z,68.30
2017-09-05T10:20:25.480Z,69.60
2017-09-05T10:22:54.775Z,68.60
2017-09-05T10:25:26.123Z,69.00
2017-09-05T10:27:55.747Z,67.50
2017-09-05T10:30:25.670Z,65.30
2017-09-05T10:32:54.243Z,63.10
2017-09-05T10:35:24.708Z,62.30
2017-09-05T10:37:53.364Z,66.50
2017-09-05T10:40:21.970Z,66.10
2017-09-05T10:42:50.863Z,63.80
2017-09-05T10:45:19.990Z,62.20
2017-09-05T10:47:48.204Z,63.60
2017-09-05T10:50:17.901Z,62.10
2017-09-05T10:52:46.533Z,63.30
2017-09-05T10:55:16.446Z,64.10
2017-09-05T10:57:44.944Z,61.50
2017-09-05T11:00:15.060Z,62.20
2017-09-05T11:02:44.432Z,60.80
2017-09-05T11:05:13.351Z,62.60
2017-09-05T11:07:41.592Z,60.40
2017-09-05T11:10:12.593Z,61.20
2017-09-05T11:12:43.289Z,60.30
2017-09-05T11:15:15.704Z,61.10
2017-09-05T11:17:46.878Z,60.60
2017-09-05T11:20:15.789Z,61.20
2017-09-05T11:22:44.456Z,58.90
2017-09-05T11:25:12.770Z,58.10
2017-09-05T11:27:41.646Z,56.00
2017-09-05T11:30:09.815Z,58.20
2017-09-05T11:32:38.364Z,55.70
2017-09-05T11:35:06.978Z,56.30
2017-09-05T11:37:36.224Z,55.90
2017-09-05T11:40:04.922Z,57.30
2017-09-05T11:42:34.786Z,55.40
2017-09-05T11:45:04.033Z,55.00
2017-09-05T11:47:32.862Z,53.00
2017-09-05T11:50:02.149Z,54.10
2017-09-05T11:52:30.306Z,55.10
2017-09-05T11:54:58.462Z,54.20
2017-09-05T11:57:26.669Z,53.40
2017-09-05T11:59:54.816Z,52.20
2017-09-05T12:02:23.129Z,54.50
2017-09-05T12:04:51.275Z,54.10
2017-09-05T12:07:19.429Z,51.50
2017-09-05T12:09:47.577Z,50.90
2017-09-05T12:12:15.765Z,51.70
2017-09-05T12:14:43.912Z,52.70
2017-09-05T12:17:12.088Z,54.20
2017-09-05T12:19:40.238Z,54.70
2017-09-05T12:22:08.393Z,53.70
2017-09-05T12:24:36.669Z,54.20
2017-09-05T12:27:04.820Z,53.30
2017-09-05T12:29:33.116Z,52.20
2017-09-05T12:32:01.264Z,51.90
2017-09-05T12:34:29.443Z,52.80
2017-09-05T12:36:57.596Z,51.50
2017-09-05T12:39:25.741Z,51.80
2017-09-05T12:41:53.923Z,52.00
2017-09-05T12:44:22.057Z,51.60
2017-09-05T12:46:50.205Z,53.50
2017-09-05T12:49:18.416Z,52.70
2017-09-05T12:51:46.568Z,53.00
2017-09-05T12:54:14.833Z,54.40
2017-09-05T12:56:43.582Z,53.20
2017-09-05T12:59:11.753Z,53.50
2017-09-05T13:01:40.330Z,52.30
2017-09-05T13:04:08.524Z,53.20
2017-09-05T13:06:36.730Z,52.70
2017-09-05T13:09:04.870Z,53.80
2017-09-05T13:11:33.069Z,53.50
2017-09-05T13:14:01.225Z,53.20
2017-09-05T13:16:29.411Z,54.50
2017-09-05T13:18:57.660Z,53.20
2017-09-05T13:21:25.822Z,52.90
2017-09-05T13:23:53.973Z,53.20
2017-09-05T13:26:22.278Z,54.80
2017-09-05T13:28:50.416Z,52.30
2017-09-05T13:31:18.577Z,53.90
2017-09-05T13:33:46.883Z,54.40
2017-09-05T13:36:15.023Z,54.10
2017-09-05T13:38:43.168Z,54.10
2017-09-05T13:41:11.337Z,52.70
2017-09-05T13:43:39.491Z,51.50
2017-09-05T13:46:07.669Z,52.40
2017-09-05T13:48:35.829Z,51.90
2017-09-05T13:51:03.971Z,50.70
2017-09-05T13:53:32.230Z,48.70
2017-09-05T13:56:00.389Z,49.50
2017-09-05T13:58:28.548Z,48.80
2017-09-05T14:00:56.749Z,51.00
2017-09-05T14:03:24.892Z,51.20
2017-09-05T14:05:53.065Z,51.00
2017-09-05T14:08:21.331Z,50.70
2017-09-05T14:10:49.486Z,50.60
2017-09-05T14:13:17.648Z,52.20
2017-09-05T14:15:45.813Z,49.70
2017-09-05T14:18:13.946Z,50.60
2017-09-05T14:20:42.153Z,50.20
2017-09-05T14:23:10.317Z,49.40
2017-09-05T14:25:39.370Z,49.90
2017-09-05T14:28:07.509Z,49.80
2017-09-05T14:30:35.633Z,49.80
2017-09-05T14:33:03.809Z,50.10
2017-09-05T14:35:31.953Z,47.80
2017-09-05T14:38:00.103Z,50.70
2017-09-05T14:40:29.573Z,48.00
2017-09-05T14:42:57.716Z,49.50
2017-09-05T14:45:25.902Z,50.30
2017-09-05T14:47:54.077Z,50.60
2017-09-05T14:50:22.250Z,51.90
2017-09-05T14:52:50.404Z,51.10
2017-09-05T14:55:18.702Z,50.90
2017-09-05T14:57:46.868Z,49.80
2017-09-05T15:00:15.014Z,50.30
2017-09-05T15:02:43.200Z,48.80
2017-09-05T15:05:11.340Z,48.60
2017-09-05T15:07:39.488Z,50.80
2017-09-05T15:10:07.666Z,49.00
2017-09-05T15:12:35.850Z,49.00
2017-09-05T15:15:04.181Z,48.80
2017-09-05T15:17:32.367Z,49.80
2017-09-05T15:20:00.646Z,52.40
2017-09-05T15:22:28.781Z,66.40
2017-09-05T15:24:56.935Z,53.30
2017-09-05T15:27:25.098Z,52.60
2017-09-05T15:29:53.273Z,52.70
2017-09-05T15:32:21.510Z,53.00
2017-09-05T15:34:49.666Z,53.10
2017-09-05T15:37:17.938Z,54.00
2017-09-05T15:39:47.329Z,54.00
2017-09-05T15:42:15.453Z,48.30
2017-09-05T15:44:43.627Z,48.60
2017-09-05T15:47:11.778Z,49.60
2017-09-05T15:49:39.956Z,47.90
2017-09-05T15:52:08.101Z,49.20
2017-09-05T15:54:36.274Z,49.40
2017-09-05T15:57:04.577Z,50.40
2017-09-05T15:59:32.712Z,50.20
2017-09-05T16:02:00.875Z,50.40
2017-09-05T16:04:29.058Z,50.90
2017-09-05T16:06:57.208Z,51.20
2017-09-05T16:09:25.397Z,51.80
2017-09-05T16:11:53.569Z,51.70
2017-09-05T16:14:22.089Z,51.30
2017-09-05T16:16:50.672Z,51.90
2017-09-05T16:19:19.707Z,51.70
2017-09-05T16:21:52.128Z,52.50
2017-09-05T16:24:21.645Z,52.20
2017-09-05T16:26:50.758Z,52.40
2017-09-05T16:29:19.760Z,52.00
2017-09-05T16:31:49.752Z,52.50
2017-09-05T16:34:18.273Z,51.70
2017-09-05T16:36:47.634Z,52.50
2017-09-05T16:39:16.166Z,52.60
2017-09-05T16:41:44.324Z,52.40
2017-09-05T16:44:12.470Z,53.00
2017-09-05T16:46:40.683Z,53.20
2017-09-05T16:49:08.824Z,53.00
2017-09-05T16:51:37.105Z,53.00
2017-09-05T16:54:05.238Z,53.20
2017-09-05T16:56:33.421Z,52.80
2017-09-05T16:59:01.577Z,53.60
2017-09-05T17:01:29.739Z,54.30
2017-09-05T17:03:57.920Z,54.00
2017-09-05T17:06:26.077Z,54.20
2017-09-05T17:08:54.234Z,54.60
2017-09-05T17:11:22.392Z,54.50
2017-09-05T17:13:50.530Z,54.40
2017-09-05T17:16:18.818Z,54.80
2017-09-05T17:18:46.996Z,55.30
2017-09-05T17:21:15.150Z,55.20
2017-09-05T17:23:43.302Z,55.10
2017-09-05T17:26:11.458Z,55.00
2017-09-05T17:28:39.634Z,55.10
2017-09-05T17:31:08.688Z,55.70
2017-09-05T17:33:37.496Z,56.20
2017-09-05T17:36:06.237Z,56.40
2017-09-05T17:38:34.692Z,56.30
2017-09-05T17:41:02.945Z,56.70
2017-09-05T17:43:31.314Z,57.10
2017-09-05T17:45:59.956Z,57.30
2017-09-05T17:48:30.799Z,57.30
2017-09-05T17:51:01.153Z,57.40
2017-09-05T17:53:31.555Z,57.60
2017-09-05T17:56:01.314Z,57.40
2017-09-05T17:58:31.944Z,57.40
2017-09-05T18:01:01.959Z,57.70
2017-09-05T18:03:32.839Z,57.80
2017-09-05T18:09:08.005Z,58.30
2017-09-05T18:11:36.604Z,58.20
2017-09-05T18:14:06.051Z,58.70
2017-09-05T18:16:35.294Z,58.50
2017-09-05T18:19:05.018Z,57.90
2017-09-05T18:21:33.875Z,58.60
2017-09-05T18:24:03.220Z,58.80
2017-09-05T18:26:36.597Z,58.90
2017-09-05T18:29:08.057Z,59.00
2017-09-05T18:34:16.472Z,86.90
2017-09-05T18:36:48.617Z,87.70
2017-09-05T18:39:33.429Z,87.70
2017-09-05T18:42:15.099Z,87.90
2017-09-05T18:44:54.859Z,87.90
2017-09-05T18:47:38.602Z,88.10
2017-09-05T18:50:25.985Z,88.40
2017-09-05T18:53:36.027Z,89.00
2017-09-05T18:56:06.998Z,89.00
2017-09-05T18:58:44.501Z,89.10
2017-09-05T19:01:23.386Z,88.90
2017-09-05T19:04:07.801Z,89.30
2017-09-05T19:09:53.494Z,89.00
2017-09-05T19:12:30.122Z,89.50
2017-09-05T19:15:22.808Z,89.50
2017-09-05T19:18:31.097Z,89.80
2017-09-05T19:21:09.106Z,90.00
2017-09-05T19:26:32.681Z,90.20
2017-09-05T19:32:30.594Z,90.20
2017-09-05T19:35:18.877Z,90.40
2017-09-05T19:37:53.682Z,90.50
2017-09-05T19:45:43.479Z,90.90
2017-09-05T19:51:04.596Z,91.10
2017-09-05T19:53:38.532Z,91.20
2017-09-05T19:56:27.617Z,91.40
2017-09-05T19:58:57.495Z,91.50
2017-09-05T20:01:34.768Z,91.40
2017-09-05T20:04:03.645Z,91.50
2017-09-05T20:06:31.809Z,91.50
2017-09-05T20:09:01.902Z,91.70
2017-09-05T20:11:32.536Z,91.80
2017-09-05T20:14:02.684Z,92.00
2017-09-05T20:36:38.158Z,91.10
2017-09-05T20:39:08.202Z,91.30
2017-09-05T20:41:39.008Z,91.10
2017-09-05T20:44:10.966Z,91.10
2017-09-05T20:46:41.012Z,91.00
2017-09-05T20:49:09.185Z,91.00
2017-09-05T20:51:40.110Z,91.10
2017-09-05T20:54:10.342Z,90.90
2017-09-05T20:56:38.513Z,91.00
2017-09-05T20:59:06.653Z,90.80
2017-09-05T21:01:34.845Z,90.80
2017-09-05T21:04:04.392Z,90.80
2017-09-05T21:06:32.719Z,90.80
2017-09-05T21:09:03.642Z,91.10
2017-09-05T21:11:32.745Z,90.70
2017-09-05T21:14:00.958Z,90.60
2017-09-05T21:16:30.397Z,90.50
2017-09-05T21:18:58.605Z,90.50
2017-09-05T21:21:29.247Z,90.40
2017-09-05T21:23:58.093Z,90.40
2017-09-05T21:26:26.268Z,90.40
2017-09-05T21:28:54.480Z,90.40
2017-09-05T21:31:22.652Z,90.30
2017-09-05T21:33:52.707Z,90.50
2017-09-05T21:36:23.172Z,90.50
2017-09-05T21:38:51.332Z,90.40
2017-09-05T21:41:19.905Z,90.50
2017-09-05T21:43:50.849Z,90.60
2017-09-05T21:46:22.377Z,90.60
2017-09-05T21:48:50.543Z,90.50
2017-09-05T21:51:20.409Z,90.50
2017-09-05T21:53:51.015Z,90.50
2017-09-05T21:56:19.207Z,90.50
2017-09-05T21:58:47.754Z,90.70
2017-09-05T22:01:17.301Z,90.80
2017-09-05T22:03:45.490Z,90.70
2017-09-05T22:06:14.564Z,90.70
2017-09-05T22:08:44.051Z,90.70
2017-09-05T22:11:15.829Z,90.70
2017-09-05T22:13:44.904Z,90.60
2017-09-05T22:16:15.066Z,90.70
2017-09-05T22:18:43.618Z,90.60
2017-09-05T22:21:12.817Z,90.70
2017-09-05T22:23:42.262Z,90.60
2017-09-05T22:26:13.030Z,90.70
2017-09-05T22:28:46.405Z,90.70
2017-09-05T22:31:15.935Z,90.70
2017-09-05T22:33:47.348Z,90.60
2017-09-05T22:36:17.617Z,90.70
2017-09-05T22:38:47.324Z,90.60
2017-09-05T22:41:17.779Z,90.60
2017-09-05T22:43:47.725Z,90.70
2017-09-05T22:46:15.872Z,90.50
2017-09-05T22:48:44.068Z,90.30
2017-09-05T22:51:13.267Z,90.50
2017-09-05T22:53:44.536Z,90.20
2017-09-05T22:56:15.436Z,90.40
2017-09-05T22:58:45.668Z,90.30
2017-09-05T23:01:16.578Z,90.10
2017-09-05T23:03:46.891Z,90.60
2017-09-05T23:06:15.070Z,90.70
2017-09-05T23:08:43.632Z,90.80
2017-09-05T23:11:13.403Z,90.90
2017-09-05T23:13:44.686Z,91.00
2017-09-05T23:16:13.553Z,90.70
2017-09-05T23:18:41.726Z,90.80
2017-09-05T23:21:10.130Z,91.00
2017-09-05T23:23:38.719Z,90.90
2017-09-05T23:26:08.189Z,91.00
2017-09-05T23:28:38.653Z,91.10
2017-09-05T23:31:07.640Z,91.20
2017-09-05T23:33:35.779Z,91.30
2017-09-05T23:36:04.001Z,91.30
2017-09-05T23:38:32.142Z,91.20
2017-09-05T23:41:00.293Z,91.30
2017-09-05T23:43:28.447Z,91.40
2017-09-05T23:45:56.636Z,91.70
2017-09-05T23:48:24.938Z,91.70
2017-09-05T23:50:53.122Z,92.20
2017-09-05T23:53:22.642Z,92.50
2017-09-05T23:55:50.808Z,92.40
2017-09-05T23:58:19.834Z,92.40
